Winfield, Tennessee
Current Conditions -  °F | °C
As of 4:45 PM on Friday 31 Oct 2014 (Local Time) from KEKQ Reporting Station
Haze Haze  
Wind Chill: 35°   Ceiling: 1400
Heat Index: 43°   Visibility: 1.2mi
Dew Point: 39°   Wind: 16mph
Humidity: 87%   Direction: 320°NW
Pressure: 29.97"   Gusts: 33mph
Location:  36.56°N, 84.45°W
Report Text: KEKQ 312045Z AUTO 32014G29KT 1 1/4SM BR FEW001 BKN014 OVC023 06/04 A2997 RMK AO2 P0007 PK WND 32029/2038 PRESRR
Loading
Personal Weather Stations






























Interactive Weather Map
Tropical Storm Tracking
New forecast layout! Learn more

10-Day Weather Forecast

Advertisements
Track Severe Weather on mobile